createdAt,value
2019-01-20T00:01:39.729Z,10.10
2019-01-20T00:04:09.103Z,10.53
2019-01-20T00:06:38.491Z,9.03
2019-01-20T00:09:10.071Z,12.43
2019-01-20T00:11:39.483Z,12.07
2019-01-20T00:14:08.834Z,12.40
2019-01-20T00:16:38.168Z,11.93
2019-01-20T00:19:07.554Z,11.83
2019-01-20T00:21:36.897Z,10.00
2019-01-20T00:24:06.274Z,10.40
2019-01-20T00:26:35.599Z,9.57
2019-01-20T00:29:06.793Z,7.97
2019-01-20T00:31:36.272Z,8.00
2019-01-20T00:34:05.868Z,9.17
2019-01-20T00:36:35.172Z,8.87
2019-01-20T00:39:06.817Z,8.23
2019-01-20T00:41:36.156Z,8.23
2019-01-20T00:44:05.734Z,8.37
2019-01-20T00:46:35.072Z,7.67
2019-01-20T00:49:04.646Z,9.57
2019-01-20T00:51:34.355Z,5.50
2019-01-20T00:54:03.795Z,7.67
2019-01-20T00:56:33.148Z,6.87
2019-01-20T00:59:02.522Z,6.27
2019-01-20T01:01:31.851Z,6.60
2019-01-20T01:04:01.228Z,7.10
2019-01-20T01:06:30.592Z,6.13
2019-01-20T01:08:59.938Z,5.63
2019-01-20T01:11:31.767Z,6.90
2019-01-20T01:14:00.384Z,8.40
2019-01-20T01:16:29.765Z,7.93
2019-01-20T01:18:59.116Z,7.20
2019-01-20T01:21:28.488Z,7.23
2019-01-20T01:23:57.852Z,8.23
2019-01-20T01:26:28.106Z,8.17
2019-01-20T01:28:57.505Z,10.13
2019-01-20T01:31:26.866Z,8.10
2019-01-20T01:33:56.221Z,5.83
2019-01-20T01:36:25.675Z,6.10
2019-01-20T01:38:55.009Z,8.73
2019-01-20T01:41:24.369Z,7.23
2019-01-20T01:43:53.703Z,7.47
2019-01-20T01:46:23.079Z,8.90
2019-01-20T01:48:52.412Z,8.47
2019-01-20T01:51:21.776Z,9.33
2019-01-20T01:53:51.104Z,9.73
2019-01-20T01:56:20.498Z,8.70
2019-01-20T01:58:52.718Z,7.70
2019-01-20T02:01:22.067Z,9.70
2019-01-20T02:03:51.400Z,9.30
2019-01-20T02:06:20.754Z,7.17
2019-01-20T02:08:50.117Z,7.30
2019-01-20T02:11:19.492Z,7.57
2019-01-20T02:13:48.808Z,7.83
2019-01-20T02:16:18.173Z,10.70
2019-01-20T02:18:47.597Z,11.63
2019-01-20T02:21:16.991Z,10.27
2019-01-20T02:23:46.345Z,12.57
2019-01-20T02:26:15.705Z,10.73
2019-01-20T02:28:45.057Z,12.30
2019-01-20T02:31:14.448Z,10.93
2019-01-20T02:33:43.815Z,11.90
2019-01-20T02:36:13.159Z,11.80
2019-01-20T02:38:42.517Z,15.80
2019-01-20T02:41:11.861Z,11.60
2019-01-20T02:43:41.223Z,11.17
2019-01-20T02:46:10.585Z,10.57
2019-01-20T02:48:39.943Z,9.43
2019-01-20T02:51:09.279Z,7.70
2019-01-20T02:53:38.639Z,8.63
2019-01-20T02:56:07.974Z,8.47
2019-01-20T02:58:37.329Z,9.73
2019-01-20T03:01:06.692Z,10.03
2019-01-20T03:03:36.041Z,9.80
2019-01-20T03:06:05.508Z,9.47
2019-01-20T03:08:34.910Z,13.17
2019-01-20T03:11:04.267Z,8.07
2019-01-20T03:13:33.611Z,9.93
2019-01-20T03:16:02.976Z,9.40
2019-01-20T03:18:33.819Z,9.90
2019-01-20T03:21:03.182Z,12.00
2019-01-20T03:23:32.522Z,9.50
2019-01-20T03:26:04.312Z,8.27
2019-01-20T03:28:33.643Z,8.10
2019-01-20T03:31:03.017Z,8.27
2019-01-20T03:33:32.366Z,9.50
2019-01-20T03:36:01.711Z,10.73
2019-01-20T03:38:31.037Z,8.97
2019-01-20T03:41:00.502Z,11.00
2019-01-20T03:43:29.867Z,10.43
2019-01-20T03:45:59.231Z,9.27
2019-01-20T03:48:28.579Z,10.83
2019-01-20T03:50:57.926Z,9.70
2019-01-20T03:53:27.271Z,10.90
2019-01-20T03:55:56.629Z,13.00
2019-01-20T03:58:25.980Z,9.87
2019-01-20T04:00:55.425Z,12.70
2019-01-20T04:03:25.794Z,10.57
2019-01-20T04:05:58.348Z,13.90
2019-01-20T04:08:27.676Z,11.20
2019-01-20T04:10:57.020Z,12.27
2019-01-20T04:13:26.376Z,9.77
2019-01-20T04:15:55.708Z,9.10
2019-01-20T04:18:25.061Z,9.90
2019-01-20T04:20:54.442Z,9.80
2019-01-20T04:23:23.802Z,8.87
2019-01-20T04:25:53.178Z,10.80
2019-01-20T04:28:22.516Z,8.53
2019-01-20T04:30:51.875Z,11.37
2019-01-20T04:33:21.240Z,10.23
2019-01-20T04:35:50.603Z,12.40
2019-01-20T04:38:19.967Z,11.07
2019-01-20T04:40:49.312Z,9.10
2019-01-20T04:43:18.674Z,10.57
2019-01-20T04:45:48.028Z,10.97
2019-01-20T04:48:17.406Z,10.37
2019-01-20T04:50:46.771Z,11.90
2019-01-20T04:53:16.135Z,9.13
2019-01-20T04:55:45.472Z,9.00
2019-01-20T04:58:15.124Z,10.43
2019-01-20T05:00:44.497Z,10.17
2019-01-20T05:03:13.866Z,9.30
2019-01-20T05:05:43.250Z,9.50
2019-01-20T05:08:12.633Z,10.27
2019-01-20T05:10:41.961Z,9.83
2019-01-20T05:13:11.308Z,9.40
2019-01-20T05:15:40.691Z,9.63
2019-01-20T05:18:10.057Z,10.80
2019-01-20T05:20:39.464Z,9.83
2019-01-20T05:23:08.812Z,11.10
2019-01-20T05:25:38.200Z,11.57
2019-01-20T05:28:07.569Z,14.97
2019-01-20T05:30:36.933Z,9.60
2019-01-20T05:33:06.303Z,10.33
2019-01-20T05:35:35.672Z,10.00
2019-01-20T05:38:05.062Z,10.50
2019-01-20T05:40:34.442Z,10.57
2019-01-20T05:43:03.798Z,10.73
2019-01-20T05:45:33.148Z,13.17
2019-01-20T05:48:02.517Z,13.30
2019-01-20T05:50:31.883Z,9.57
2019-01-20T05:53:01.227Z,11.63
2019-01-20T05:55:30.611Z,12.93
2019-01-20T05:57:59.957Z,11.83
2019-01-20T06:00:33.131Z,14.10
2019-01-20T06:03:02.473Z,13.47
2019-01-20T06:05:31.853Z,11.97
2019-01-20T06:08:01.227Z,13.83
2019-01-20T06:10:30.603Z,15.03
2019-01-20T06:12:59.970Z,15.77
2019-01-20T06:15:29.341Z,13.63
2019-01-20T06:17:58.697Z,13.57
2019-01-20T06:20:28.047Z,13.17
2019-01-20T06:22:57.467Z,14.20
2019-01-20T06:25:26.834Z,13.53
2019-01-20T06:27:56.191Z,14.90
2019-01-20T06:30:27.861Z,17.93
2019-01-20T06:32:57.357Z,12.80
2019-01-20T06:35:28.743Z,14.83
2019-01-20T06:37:58.116Z,12.03
2019-01-20T06:40:27.497Z,12.67
2019-01-20T06:43:01.856Z,14.73
2019-01-20T06:45:28.005Z,12.97
2019-01-20T06:47:57.358Z,14.00
2019-01-20T06:50:26.877Z,12.83
2019-01-20T06:52:57.351Z,12.30
2019-01-20T06:55:26.789Z,12.77
2019-01-20T06:57:56.265Z,16.43
2019-01-20T07:00:26.214Z,12.57
2019-01-20T07:02:55.614Z,13.73
2019-01-20T07:05:24.956Z,12.97
2019-01-20T07:07:55.320Z,13.60
2019-01-20T07:10:26.794Z,13.37
2019-01-20T07:12:56.221Z,17.23
2019-01-20T07:15:26.010Z,13.13
2019-01-20T07:17:56.706Z,12.10
2019-01-20T07:20:27.175Z,13.63
2019-01-20T07:22:56.885Z,14.07
2019-01-20T07:25:28.026Z,13.07
2019-01-20T07:27:57.442Z,16.17
2019-01-20T07:30:26.827Z,12.93
2019-01-20T07:32:56.152Z,12.50
2019-01-20T07:35:25.546Z,14.70
2019-01-20T07:37:56.330Z,15.57
2019-01-20T07:40:25.681Z,15.77
2019-01-20T07:42:55.046Z,15.97
2019-01-20T07:45:24.418Z,15.47
2019-01-20T07:47:53.860Z,18.13
2019-01-20T07:50:27.702Z,17.67
2019-01-20T07:52:57.101Z,15.07
2019-01-20T07:55:26.554Z,20.37
2019-01-20T07:57:55.956Z,14.37
2019-01-20T08:00:26.552Z,19.13
2019-01-20T08:02:56.005Z,22.53
2019-01-20T08:05:25.450Z,26.17
2019-01-20T08:07:54.818Z,32.73
2019-01-20T08:10:26.531Z,30.10
2019-01-20T08:12:57.721Z,29.17
2019-01-20T08:15:27.203Z,30.10
2019-01-20T08:17:56.849Z,16.33
2019-01-20T08:20:26.509Z,20.90
2019-01-20T08:22:55.951Z,21.83
2019-01-20T08:25:26.402Z,24.97
2019-01-20T08:27:55.762Z,20.70
2019-01-20T08:30:26.714Z,21.37
2019-01-20T08:32:56.204Z,16.10
2019-01-20T08:35:25.588Z,17.73
2019-01-20T08:37:54.967Z,16.93
2019-01-20T08:40:26.949Z,19.40
2019-01-20T08:42:56.378Z,17.07
2019-01-20T08:46:22.204Z,20.23
2019-01-20T08:48:51.724Z,17.93
2019-01-20T08:51:22.742Z,18.90
2019-01-20T08:53:52.552Z,17.57
2019-01-20T08:56:22.024Z,19.27
2019-01-20T08:58:51.586Z,17.83
2019-01-20T09:01:21.369Z,20.23
2019-01-20T09:03:50.721Z,22.53
2019-01-20T09:06:20.422Z,22.03
2019-01-20T09:08:49.910Z,18.30
2019-01-20T09:11:19.524Z,18.43
2019-01-20T09:13:48.887Z,23.23
2019-01-20T09:16:18.395Z,22.47
2019-01-20T09:18:47.951Z,23.57
2019-01-20T09:21:17.486Z,23.47
2019-01-20T09:23:47.163Z,23.67
2019-01-20T09:26:16.608Z,19.80
2019-01-20T09:28:46.022Z,19.60
2019-01-20T09:31:15.401Z,19.13
2019-01-20T09:33:46.685Z,19.30
2019-01-20T09:36:19.658Z,19.57
2019-01-20T09:38:50.821Z,21.53
2019-01-20T09:41:20.302Z,22.00
2019-01-20T09:43:49.653Z,17.97
2019-01-20T09:46:19.036Z,19.37
2019-01-20T09:48:48.389Z,20.10
2019-01-20T09:51:18.862Z,21.77
2019-01-20T09:53:48.202Z,21.27
2019-01-20T09:56:17.601Z,20.07
2019-01-20T09:58:46.989Z,17.60
2019-01-20T10:01:16.349Z,21.33
2019-01-20T10:03:45.693Z,21.40
2019-01-20T10:06:15.259Z,18.87
2019-01-20T10:08:44.603Z,19.87
2019-01-20T10:11:13.977Z,15.77
2019-01-20T10:13:43.327Z,17.93
2019-01-20T10:16:12.698Z,19.63
2019-01-20T10:18:42.100Z,18.97
2019-01-20T10:21:11.449Z,17.47
2019-01-20T10:23:42.042Z,18.67
2019-01-20T10:26:11.416Z,16.47
2019-01-20T10:28:40.834Z,19.73
2019-01-20T10:31:10.211Z,18.50
2019-01-20T10:33:39.591Z,19.53
2019-01-20T10:36:08.909Z,17.47
2019-01-20T10:38:38.365Z,17.10
2019-01-20T10:41:07.738Z,16.73
2019-01-20T10:43:37.113Z,22.03
2019-01-20T10:46:06.469Z,20.60
2019-01-20T10:48:35.816Z,21.77
2019-01-20T10:51:05.197Z,27.10
2019-01-20T10:53:34.550Z,26.17
2019-01-20T10:56:03.923Z,19.53
2019-01-20T10:58:33.261Z,19.73
2019-01-20T11:01:02.639Z,20.03
2019-01-20T11:03:31.984Z,18.07
2019-01-20T11:06:01.446Z,21.00
2019-01-20T11:08:30.791Z,17.27
2019-01-20T11:11:00.173Z,20.07
2019-01-20T11:13:29.521Z,22.23
2019-01-20T11:15:58.860Z,24.57
2019-01-20T11:18:28.231Z,21.13
2019-01-20T11:20:57.629Z,16.63
2019-01-20T11:23:27.290Z,17.03
2019-01-20T11:25:56.729Z,17.30
2019-01-20T11:28:26.164Z,19.00
2019-01-20T11:30:55.526Z,18.40
2019-01-20T11:33:24.892Z,17.77
2019-01-20T11:35:54.238Z,20.03
2019-01-20T11:38:23.613Z,16.13
2019-01-20T11:40:52.990Z,18.43
2019-01-20T11:43:22.342Z,16.40
2019-01-20T11:45:51.737Z,16.87
2019-01-20T11:48:21.093Z,17.23
2019-01-20T11:50:50.475Z,17.27
2019-01-20T11:53:19.841Z,15.83
2019-01-20T11:55:49.188Z,16.37
2019-01-20T11:58:18.555Z,18.00
2019-01-20T12:00:47.934Z,18.07
2019-01-20T12:03:17.285Z,17.53
2019-01-20T12:05:47.615Z,16.13
2019-01-20T12:08:17.037Z,20.90
2019-01-20T12:10:46.405Z,20.90
2019-01-20T12:13:19.002Z,18.83
2019-01-20T12:15:48.375Z,15.83
2019-01-20T12:18:17.733Z,16.67
2019-01-20T12:20:47.097Z,18.13
2019-01-20T12:23:16.474Z,17.07
2019-01-20T12:25:45.888Z,18.07
2019-01-20T12:28:15.282Z,17.33
2019-01-20T12:30:44.640Z,19.03
2019-01-20T12:33:14.111Z,18.53
2019-01-20T12:35:43.481Z,17.13
2019-01-20T12:38:12.816Z,15.60
2019-01-20T12:40:47.316Z,16.83
2019-01-20T12:43:16.690Z,16.50
2019-01-20T12:45:46.123Z,17.40
2019-01-20T12:48:15.968Z,16.77
2019-01-20T12:50:45.574Z,19.57
2019-01-20T12:53:14.926Z,16.97
2019-01-20T12:55:44.270Z,17.37
2019-01-20T12:58:14.036Z,19.47
2019-01-20T13:00:43.398Z,18.73
2019-01-20T13:03:12.795Z,16.93
2019-01-20T13:05:42.152Z,25.80
2019-01-20T13:08:11.624Z,39.17
2019-01-20T13:10:40.985Z,35.07
2019-01-20T13:13:10.323Z,29.60
2019-01-20T13:15:39.787Z,30.10
2019-01-20T13:18:09.119Z,21.10
2019-01-20T13:20:38.504Z,16.57
2019-01-20T13:23:07.863Z,17.77
2019-01-20T13:25:37.239Z,16.63
2019-01-20T13:28:06.603Z,15.53
2019-01-20T13:30:36.171Z,16.10
2019-01-20T13:33:05.620Z,15.67
2019-01-20T13:35:35.319Z,17.07
2019-01-20T13:38:13.529Z,19.33
2019-01-20T13:40:45.753Z,16.37
2019-01-20T13:43:15.177Z,16.87
2019-01-20T13:45:44.655Z,16.60
2019-01-20T13:48:13.999Z,18.80
2019-01-20T13:50:43.523Z,16.90
2019-01-20T13:53:12.897Z,18.00
2019-01-20T13:55:42.278Z,15.27
2019-01-20T13:58:11.776Z,15.87
2019-01-20T14:00:41.242Z,17.57
2019-01-20T14:03:12.397Z,20.80
2019-01-20T14:05:41.919Z,23.63
2019-01-20T14:08:11.523Z,20.17
2019-01-20T14:10:40.910Z,21.27
2019-01-20T14:13:10.298Z,21.57
2019-01-20T14:15:40.681Z,18.07
2019-01-20T14:18:10.242Z,22.03
2019-01-20T14:20:39.691Z,19.20
2019-01-20T14:23:09.053Z,16.90
2019-01-20T14:25:39.751Z,16.00
2019-01-20T14:28:09.096Z,18.37
2019-01-20T14:30:38.590Z,16.07
2019-01-20T14:33:08.203Z,18.00
2019-01-20T14:35:37.802Z,17.40
2019-01-20T14:38:07.165Z,21.13
2019-01-20T14:40:37.170Z,22.43
2019-01-20T14:43:06.621Z,20.80
2019-01-20T14:45:36.000Z,17.93
2019-01-20T14:48:06.107Z,18.40
2019-01-20T14:50:35.650Z,16.00
2019-01-20T14:53:05.260Z,16.50
2019-01-20T14:55:36.053Z,23.17
2019-01-20T14:58:06.892Z,22.70
2019-01-20T15:00:38.023Z,29.00
2019-01-20T15:03:08.176Z,17.50
2019-01-20T15:05:38.727Z,22.50
2019-01-20T15:08:08.883Z,22.93
2019-01-20T15:10:38.270Z,19.20
2019-01-20T15:13:07.617Z,18.17
2019-01-20T15:15:39.545Z,17.83
2019-01-20T15:18:09.450Z,21.40
2019-01-20T15:20:39.276Z,28.20
2019-01-20T15:23:08.981Z,29.30
2019-01-20T15:25:39.390Z,21.90
2019-01-20T15:28:09.031Z,25.07
2019-01-20T15:30:38.437Z,22.67
2019-01-20T15:33:07.907Z,22.80
2019-01-20T15:35:37.286Z,20.37
2019-01-20T15:38:06.640Z,22.50
2019-01-20T15:40:36.014Z,20.57
2019-01-20T15:43:05.624Z,21.70
2019-01-20T15:45:34.969Z,18.13
2019-01-20T15:48:04.497Z,18.70
2019-01-20T15:50:34.380Z,23.00
2019-01-20T15:53:03.765Z,17.63
2019-01-20T15:55:33.113Z,21.97
2019-01-20T15:58:02.482Z,19.23
2019-01-20T16:00:32.461Z,17.20
2019-01-20T16:03:03.516Z,15.70
2019-01-20T16:05:32.883Z,18.43
2019-01-20T16:08:02.237Z,19.20
2019-01-20T16:10:31.606Z,17.70
2019-01-20T16:13:00.983Z,16.17
2019-01-20T16:15:35.419Z,16.03
2019-01-20T16:18:05.174Z,16.97
2019-01-20T16:20:34.521Z,20.43
2019-01-20T16:23:05.450Z,18.17
2019-01-20T16:25:38.534Z,18.13
2019-01-20T16:28:09.407Z,19.60
2019-01-20T16:30:40.033Z,26.17
2019-01-20T16:33:09.497Z,27.90
2019-01-20T16:35:38.865Z,29.30
2019-01-20T16:38:09.986Z,26.83
2019-01-20T16:40:39.363Z,28.40
2019-01-20T16:43:09.589Z,23.80
2019-01-20T16:45:46.318Z,23.23
2019-01-20T16:48:15.688Z,21.10
2019-01-20T16:50:45.053Z,21.33
2019-01-20T16:53:14.422Z,21.90
2019-01-20T16:55:44.116Z,24.73
2019-01-20T16:58:13.470Z,26.20
2019-01-20T17:00:44.478Z,25.17
2019-01-20T17:03:14.011Z,25.07
2019-01-20T17:05:43.407Z,27.60
2019-01-20T17:08:12.876Z,30.13
2019-01-20T17:10:43.391Z,27.63
2019-01-20T17:13:13.212Z,25.53
2019-01-20T17:15:44.405Z,31.10
2019-01-20T17:18:17.620Z,27.93
2019-01-20T17:20:47.223Z,25.47
2019-01-20T17:23:16.737Z,28.40
2019-01-20T17:25:46.098Z,24.33
2019-01-20T17:28:15.516Z,28.17
2019-01-20T17:30:45.155Z,58.20
2019-01-20T17:33:15.510Z,30.77
2019-01-20T17:35:45.086Z,28.47
2019-01-20T17:38:14.468Z,26.60
2019-01-20T17:40:43.861Z,33.10
2019-01-20T17:43:13.254Z,21.83
2019-01-20T17:45:48.560Z,27.93
2019-01-20T17:48:15.466Z,27.73
2019-01-20T17:50:45.736Z,33.63
2019-01-20T17:53:15.336Z,33.93
2019-01-20T17:55:44.723Z,29.23
2019-01-20T17:58:14.127Z,33.83
2019-01-20T18:01:08.418Z,37.73
2019-01-20T18:03:37.868Z,38.97
2019-01-20T18:06:07.569Z,34.63
2019-01-20T18:08:36.927Z,23.33
2019-01-20T18:11:06.300Z,20.23
2019-01-20T18:13:35.658Z,19.20
2019-01-20T18:16:05.426Z,13.20
2019-01-20T18:18:34.767Z,14.20
2019-01-20T18:21:04.117Z,18.43
2019-01-20T18:23:35.531Z,17.73
2019-01-20T18:26:07.062Z,17.03
2019-01-20T18:28:36.443Z,16.93
2019-01-20T18:31:06.806Z,18.87
2019-01-20T18:33:36.189Z,11.37
2019-01-20T18:36:05.584Z,11.83
2019-01-20T18:38:34.895Z,9.90
2019-01-20T18:41:04.365Z,13.93
2019-01-20T18:43:33.734Z,11.90
2019-01-20T18:46:03.133Z,14.93
2019-01-20T18:48:33.237Z,14.30
2019-01-20T18:51:02.608Z,15.43
2019-01-20T18:53:31.976Z,14.37
2019-01-20T18:56:01.359Z,17.67
2019-01-20T18:58:30.732Z,15.37
2019-01-20T19:01:00.098Z,15.63
2019-01-20T19:03:29.578Z,14.13
2019-01-20T19:05:58.940Z,17.43
2019-01-20T19:08:28.293Z,19.13
2019-01-20T19:10:57.674Z,20.47
2019-01-20T19:13:27.105Z,13.77
2019-01-20T19:15:56.447Z,11.70
2019-01-20T19:18:25.822Z,11.73
2019-01-20T19:20:55.192Z,14.70
2019-01-20T19:23:24.603Z,13.30
2019-01-20T19:25:53.960Z,19.27
2019-01-20T19:28:23.368Z,19.63
2019-01-20T19:30:52.734Z,22.80
2019-01-20T19:33:22.136Z,18.93
2019-01-20T19:35:51.512Z,21.50
2019-01-20T19:38:20.904Z,20.77
2019-01-20T19:40:50.288Z,20.87
2019-01-20T19:43:19.655Z,21.00
2019-01-20T19:45:49.026Z,22.03
2019-01-20T19:48:20.209Z,25.57
2019-01-20T19:50:49.479Z,25.73
2019-01-20T19:53:18.832Z,27.03
2019-01-20T19:55:48.378Z,27.47
2019-01-20T19:58:17.742Z,22.77
2019-01-20T20:00:47.621Z,27.77
2019-01-20T20:03:17.171Z,33.40
2019-01-20T20:05:46.539Z,28.73
2019-01-20T20:08:15.953Z,26.23
2019-01-20T20:10:47.373Z,24.63
2019-01-20T20:13:16.730Z,21.37
2019-01-20T20:15:46.127Z,20.43
2019-01-20T20:18:15.530Z,20.83
2019-01-20T20:20:44.910Z,22.43
2019-01-20T20:23:14.302Z,28.20
2019-01-20T20:25:43.663Z,27.07
2019-01-20T20:28:13.180Z,28.60
2019-01-20T20:30:42.619Z,24.90
2019-01-20T20:33:12.015Z,21.30
2019-01-20T20:35:41.491Z,22.80
2019-01-20T20:38:10.867Z,21.27
2019-01-20T20:40:40.222Z,22.17
2019-01-20T20:43:09.619Z,40.57
2019-01-20T20:45:38.999Z,34.03
2019-01-20T20:48:08.385Z,27.30
2019-01-20T20:50:37.833Z,41.30
2019-01-20T20:53:07.179Z,34.10
2019-01-20T20:55:36.576Z,33.27
2019-01-20T20:58:06.270Z,29.30
2019-01-20T21:00:42.511Z,26.43
2019-01-20T21:03:19.106Z,28.57
2019-01-20T21:05:48.604Z,27.80
2019-01-20T21:08:17.967Z,33.17
2019-01-20T21:10:47.395Z,36.30
2019-01-20T21:13:16.782Z,24.13
2019-01-20T21:15:46.268Z,23.43
2019-01-20T21:18:15.885Z,23.67
2019-01-20T21:20:45.461Z,22.13
2019-01-20T21:23:16.445Z,22.23
2019-01-20T21:25:45.936Z,24.23
2019-01-20T21:28:15.502Z,27.77
2019-01-20T21:30:46.431Z,28.00
2019-01-20T21:33:16.085Z,27.40
2019-01-20T21:35:45.912Z,22.60
2019-01-20T21:38:17.183Z,20.77
2019-01-20T21:40:46.591Z,17.30
2019-01-20T21:43:17.028Z,20.13
2019-01-20T21:45:46.647Z,20.40
2019-01-20T21:48:16.233Z,22.17
2019-01-20T21:50:45.881Z,23.57
2019-01-20T21:53:15.549Z,26.00
2019-01-20T21:55:45.121Z,25.07
2019-01-20T21:58:14.547Z,23.32
2019-01-20T22:00:44.051Z,22.33
2019-01-20T22:03:14.004Z,23.00
2019-01-20T22:05:45.414Z,25.67
2019-01-20T22:08:15.741Z,29.43
2019-01-20T22:10:45.288Z,30.00
2019-01-20T22:13:14.745Z,28.63
2019-01-20T22:15:46.704Z,30.17
2019-01-20T22:18:16.501Z,31.20
2019-01-20T22:20:46.033Z,25.80
2019-01-20T22:23:15.587Z,25.60
2019-01-20T22:25:45.008Z,24.77
2019-01-20T22:28:14.634Z,21.93
2019-01-20T22:30:45.120Z,27.07
2019-01-20T22:33:15.134Z,23.53
2019-01-20T22:35:44.623Z,21.73
2019-01-20T22:38:14.359Z,17.53
2019-01-20T22:40:45.869Z,16.67
2019-01-20T22:43:15.685Z,17.33
2019-01-20T22:45:45.568Z,19.70
2019-01-20T22:48:16.395Z,16.77
2019-01-20T22:50:45.873Z,17.40
2019-01-20T22:53:17.196Z,18.60
2019-01-20T22:55:46.838Z,19.00
2019-01-20T22:58:17.397Z,15.97
2019-01-20T23:00:55.524Z,16.27
2019-01-20T23:03:24.963Z,19.63
2019-01-20T23:05:55.517Z,21.97
2019-01-20T23:08:25.066Z,22.73
2019-01-20T23:10:54.418Z,25.43
2019-01-20T23:13:23.805Z,26.70
2019-01-20T23:15:53.196Z,25.37
2019-01-20T23:18:22.533Z,18.70
2019-01-20T23:20:51.903Z,17.60
2019-01-20T23:23:21.291Z,19.37
2019-01-20T23:25:50.648Z,21.10
2019-01-20T23:28:20.071Z,15.13
2019-01-20T23:30:49.386Z,18.47
2019-01-20T23:33:18.750Z,18.27
2019-01-20T23:35:48.139Z,19.83
2019-01-20T23:38:17.486Z,20.73
2019-01-20T23:40:46.878Z,21.57
2019-01-20T23:43:16.214Z,19.13
2019-01-20T23:45:45.556Z,22.13
2019-01-20T23:48:14.941Z,27.33
2019-01-20T23:50:44.286Z,20.97
2019-01-20T23:53:13.661Z,21.80
2019-01-20T23:55:42.995Z,17.87
2019-01-20T23:58:12.373Z,20.53
